^^
Station Historical Data
Daily Summary for June 8, 2017 Units:  Metric    English   Both
« Previous Day
Next Day »
Daily Weekly Monthly Yearly Custom
  High: Low: Average:
Temperature: 16.3 °C 5.8 °C 9.7 °C
Dew Point: 3.2 °C -3.1 °C 0.8 °C
Humidity: 76% 32% 57%
Wind Speed: 17.7km/h 0km/h 4.7km/h
Wind Gust: 20.9km/h - -
Wind- - South
Pressure: 1027.3 hPa 1021.9 hPa -
Precipitation: 0 mm    
Historical Graphs
 
 
Tabular Data for June 8, 2017
Time Temperature Dew Point Pressure Wind Wind Speed Wind Gust Humidity Rainfall Rate (Hourly) solar Conditions
00:07 8.3 °C 2.5 °C 1022.9 hPa South 11.1 km/h 14.5 km/h 67% 0 mm 0.0 W/m2
00:12 8.2 °C 2.4 °C 1022.9 hPa South 7.9 km/h 11.3 km/h 67% 0 mm 0.0 W/m2
00:17 8.1 °C 2.3 °C 1023.2 hPa South 11.1 km/h 11.3 km/h 67% 0 mm 0.0 W/m2
00:27 7.9 °C 2.4 °C 1023.2 hPa South 6.4 km/h 11.3 km/h 68% 0 mm 0.0 W/m2
00:32 7.8 °C 2.5 °C 1023.2 hPa South 9.7 km/h 14.5 km/h 69% 0 mm 0.0 W/m2
00:37 7.8 °C 2.3 °C 1023.2 hPa South 6.4 km/h 11.3 km/h 68% 0 mm 0.0 W/m2
00:42 7.8 °C 2.3 °C 1023.2 hPa South 11.1 km/h 12.9 km/h 68% 0 mm 0.0 W/m2
00:47 7.7 °C 2.2 °C 1023.2 hPa South 11.1 km/h 12.9 km/h 68% 0 mm 0.0 W/m2
00:52 7.7 °C 2.2 °C 1023.2 hPa South 11.1 km/h 12.9 km/h 68% 0 mm 0.0 W/m2
00:57 7.6 °C 2.1 °C 1023.2 hPa South 7.9 km/h 14.5 km/h 68% 0 mm 0.0 W/m2
01:02 7.6 °C 2.1 °C 1023.2 hPa South 6.4 km/h 9.7 km/h 68% 0 mm 0.0 W/m2
01:12 7.4 °C 2.7 °C 1023.2 hPa South 11.1 km/h 11.3 km/h 72% 0 mm 0.0 W/m2
01:17 7.4 °C 2.1 °C 1023.2 hPa South 9.7 km/h 11.3 km/h 69% 0 mm 0.0 W/m2
01:22 7.4 °C 2.1 °C 1023.2 hPa South 6.4 km/h 9.7 km/h 69% 0 mm 0.0 W/m2
01:27 7.3 °C 2 °C 1023.2 hPa South 7.9 km/h 11.3 km/h 69% 0 mm 0.0 W/m2
01:32 7.2 °C 1.9 °C 1023.2 hPa South 4.7 km/h 9.7 km/h 69% 0 mm 0.0 W/m2
01:38 7.1 °C 1.8 °C 1023.6 hPa South 6.4 km/h 8 km/h 69% 0 mm 0.0 W/m2
01:43 7.1 °C 2 °C 1023.6 hPa South 9.7 km/h 11.3 km/h 70% 0 mm 0.0 W/m2
01:48 7 °C 1.9 °C 1023.6 hPa South 11.1 km/h 12.9 km/h 70% 0 mm 0.0 W/m2
01:53 7 °C 2.1 °C 1023.6 hPa South 7.9 km/h 9.7 km/h 71% 0 mm 0.0 W/m2
01:58 6.9 °C 1.8 °C 1023.6 hPa South 6.4 km/h 8 km/h 70% 0 mm 0.0 W/m2
02:03 6.8 °C 1.9 °C 1023.6 hPa South 9.7 km/h 12.9 km/h 71% 0 mm 0.0 W/m2
02:08 6.8 °C 1.9 °C 1023.9 hPa South 9.7 km/h 11.3 km/h 71% 0 mm 0.0 W/m2
02:13 6.7 °C 2 °C 1023.9 hPa South 7.9 km/h 9.7 km/h 72% 0 mm 0.0 W/m2
02:18 6.7 °C 2 °C 1023.9 hPa South 6.4 km/h 8 km/h 72% 0 mm 0.0 W/m2
02:23 6.6 °C 1.9 °C 1023.9 hPa South 7.9 km/h 11.3 km/h 72% 0 mm 0.0 W/m2
02:33 6.8 °C 1.9 °C 1024.3 hPa South 7.9 km/h 12.9 km/h 71% 0 mm 0.0 W/m2
02:38 6.8 °C 1.9 °C 1024.3 hPa South 13 km/h 14.5 km/h 71% 0 mm 0.0 W/m2
02:43 6.8 °C 2.1 °C 1024.6 hPa South 13 km/h 14.5 km/h 72% 0 mm 0.0 W/m2
02:48 6.9 °C 2.2 °C 1024.6 hPa South 14.3 km/h 17.7 km/h 72% 0 mm 0.0 W/m2
02:53 7 °C 2.3 °C 1024.6 hPa South 7.9 km/h 12.9 km/h 72% 0 mm 0.0 W/m2
02:58 6.9 °C 2.2 °C 1024.6 hPa South 6.4 km/h 9.7 km/h 72% 0 mm 0.0 W/m2
03:03 6.9 °C 2.2 °C 1024.6 hPa South 16.3 km/h 16.3 km/h 72% 0 mm 0.0 W/m2
03:13 6.9 °C 2.2 °C 1024.9 hPa South 9.7 km/h 12.9 km/h 72% 0 mm 0.0 W/m2
03:18 6.8 °C 2.1 °C 1024.9 hPa South 6.4 km/h 12.9 km/h 72% 0 mm 0.0 W/m2
03:23 6.7 °C 2 °C 1024.6 hPa South 11.1 km/h 19.3 km/h 72% 0 mm 0.0 W/m2
03:28 6.7 °C 2 °C 1024.6 hPa South 11.1 km/h 14.5 km/h 72% 0 mm 0.0 W/m2
03:33 6.7 °C 1.8 °C 1024.9 hPa South 9.7 km/h 12.9 km/h 71% 0 mm 0.0 W/m2
03:38 6.8 °C 1.9 °C 1024.6 hPa South 9.7 km/h 9.7 km/h 71% 0 mm 0.0 W/m2
03:43 6.8 °C 1.9 °C 1024.3 hPa South 6.4 km/h 11.3 km/h 71% 0 mm 0.0 W/m2
03:49 6.6 °C 1.9 °C 1023.9 hPa South 6.4 km/h 9.7 km/h 72% 0 mm 0.0 W/m2
03:59 6.6 °C 1.9 °C 1023.2 hPa South 4.7 km/h 12.9 km/h 72% 0 mm 0.0 W/m2
04:04 6.5 °C 1.8 °C 1023.2 hPa South 3.2 km/h 4.8 km/h 72% 0 mm 0.0 W/m2
04:09 6.3 °C 1.8 °C 1023.6 hPa Calm     73% 0 mm 0.0 W/m2
04:14 6 °C 1.5 °C 1023.6 hPa Calm     73% 0 mm 0.0 W/m2
04:19 5.8 °C 1.7 °C 1023.9 hPa Calm     75% 0 mm 0.0 W/m2
04:29 6.1 °C 2.2 °C 1024.3 hPa Calm     76% 0 mm 0.0 W/m2
04:34 6.3 °C 2.4 °C 1023.9 hPa Calm     76% 0 mm 0.0 W/m2
04:39 6.5 °C 2.6 °C 1024.3 hPa Calm     76% 0 mm 0.0 W/m2
04:45 6.8 °C 2.9 °C 1024.3 hPa Calm     76% 0 mm 0.0 W/m2
04:50 7 °C 3.1 °C 1024.3 hPa Calm     76% 0 mm 0.0 W/m2
05:00 7.2 °C 3.1 °C 1024.3 hPa Calm     75% 0 mm 0.0 W/m2
05:05 7.3 °C 3.2 °C 1024.3 hPa Calm     75% 0 mm 0.0 W/m2
05:10 7.4 °C 3.1 °C 1024.3 hPa South 11.1 km/h 12.9 km/h 74% 0 mm 0.0 W/m2
05:20 7.7 °C 2.4 °C 1024.6 hPa South 13 km/h 16.1 km/h 69% 0 mm 0.0 W/m2
05:30 7.7 °C 2 °C 1024.6 hPa South 9.7 km/h 14.5 km/h 67% 0 mm 0.0 W/m2
05:35 7.7 °C 2 °C 1024.9 hPa South 4.7 km/h 14.5 km/h 67% 0 mm 0.0 W/m2
05:40 7.7 °C 2 °C 1024.9 hPa South 13 km/h 17.7 km/h 67% 0 mm 0.0 W/m2
05:50 7.4 °C 1.5 °C 1025.3 hPa South 7.9 km/h 12.9 km/h 66% 0 mm 0.0 W/m2
05:55 7.3 °C 1.6 °C 1025.6 hPa South 9.7 km/h 14.5 km/h 67% 0 mm 0.0 W/m2
06:00 7.2 °C 1.7 °C 1025.6 hPa South 6.4 km/h 14.5 km/h 68% 0 mm 0.0 W/m2
06:06 7.1 °C 1.6 °C 1025.3 hPa South 6.4 km/h 9.7 km/h 68% 0 mm 0.0 W/m2
06:15 6.9 °C 1.2 °C 1025.6 hPa South 3.2 km/h 6.4 km/h 67% 0 mm 0.0 W/m2
06:20 6.7 °C 1.2 °C 1025.6 hPa South 3.2 km/h 9.7 km/h 68% 0 mm 0.0 W/m2
06:25 6.7 °C 1.2 °C 1026 hPa South 4.7 km/h 8 km/h 68% 0 mm 0.0 W/m2
06:30 6.7 °C 1.2 °C 1026 hPa South 9.7 km/h 11.3 km/h 68% 0 mm 0.0 W/m2
06:40 6.8 °C 1.3 °C 1026 hPa South 7.9 km/h 11.3 km/h 68% 0 mm 7.0 W/m2
06:46 7.1 °C 1.4 °C 1026.3 hPa South 7.9 km/h 12.9 km/h 67% 0 mm 9.0 W/m2
06:56 7.4 °C 1.5 °C 1026.3 hPa South 17.7 km/h 20.9 km/h 66% 0 mm 21.0 W/m2
07:01 7.7 °C 1.5 °C 1026.6 hPa South 11.1 km/h 19.3 km/h 65% 0 mm 19.0 W/m2
07:09 7.8 °C 1.4 °C 1026.6 hPa South 13 km/h 20.9 km/h 64% 0 mm 33.0 W/m2
07:16 7.9 °C 1.3 °C 1026.6 hPa South 11.1 km/h 14.5 km/h 63% 0 mm 47.0 W/m2
07:36 8.1 °C 1.3 °C 1027 hPa South 16.3 km/h 19.3 km/h 62% 0 mm 65.0 W/m2
07:41 8.2 °C 1.4 °C 1027 hPa South 9.7 km/h 9.7 km/h 62% 0 mm 84.0 W/m2
07:56 8.4 °C 1.5 °C 1027 hPa South 6.4 km/h 12.9 km/h 62% 0 mm 181.0 W/m2
08:18 8.4 °C 1.3 °C 1027.3 hPa South 11.1 km/h 12.9 km/h 61% 0 mm 63.0 W/m2
08:32 8.6 °C 1.5 °C 1026.6 hPa Calm     61% 0 mm 320.0 W/m2
08:39 9 °C 1.6 °C 1026.6 hPa Calm   3.2 km/h 60% 0 mm 339.0 W/m2
08:45 9.1 °C 1.7 °C 1026.3 hPa Calm     60% 0 mm 271.0 W/m2
08:50 9.2 °C 1.8 °C 1026 hPa Calm     60% 0 mm 374.0 W/m2
09:04 9.5 °C 1.9 °C 1025.6 hPa Calm     59% 0 mm 297.0 W/m2
09:14 9.8 °C 1.7 °C 1026 hPa Calm     57% 0 mm 420.0 W/m2
09:33 9.9 °C 1.5 °C 1025.6 hPa Calm     56% 0 mm 455.0 W/m2
09:39 10.1 °C 1.7 °C 1025.6 hPa Calm     56% 0 mm 475.0 W/m2
09:57 10.3 °C 1.4 °C 1025.6 hPa Calm     54% 0 mm 506.0 W/m2
10:05 10.7 °C 1.2 °C 1026 hPa Calm     52% 0 mm 524.0 W/m2
11:23 12.2 °C 0.6 °C 1025.3 hPa Calm     45% 0 mm 599.0 W/m2
11:37 12.7 °C 0.4 °C 1024.9 hPa Calm     43% 0 mm 605.0 W/m2
11:47 13 °C 0.4 °C 1024.3 hPa Calm     42% 0 mm 608.0 W/m2
11:57 13.5 °C 0.2 °C 1024.3 hPa Calm     40% 0 mm 606.0 W/m2
12:07 13.6 °C 0.2 °C 1024.3 hPa Calm     40% 0 mm 608.0 W/m2
12:13 13.5 °C 0.2 °C 1023.9 hPa Calm     40% 0 mm 601.0 W/m2
12:25 13.6 °C -0.1 °C 1023.9 hPa Calm     39% 0 mm 596.0 W/m2
13:01 14.7 °C -0.6 °C 1023.6 hPa Calm     35% 0 mm 570.0 W/m2
13:09 14.9 °C 0 °C 1023.6 hPa Calm     36% 0 mm 548.0 W/m2
13:25 15.2 °C -0.6 °C 1023.2 hPa Calm     34% 0 mm 527.0 W/m2
13:40 15.3 °C -0.5 °C 1023.2 hPa Calm     34% 0 mm 508.0 W/m2
13:55 15.4 °C -0.8 °C 1023.2 hPa Calm     33% 0 mm 483.0 W/m2
14:06 15.5 °C -0.7 °C 1023.6 hPa Calm     33% 0 mm 462.0 W/m2
14:16 15.7 °C -0.5 °C 1022.9 hPa Calm   3.2 km/h 33% 0 mm 434.0 W/m2
14:31 16 °C -0.7 °C 1022.9 hPa Calm     32% 0 mm 408.0 W/m2
14:41 15.9 °C -0.8 °C 1022.6 hPa Calm   4.8 km/h 32% 0 mm 367.0 W/m2
14:52 16.1 °C -0.6 °C 1022.2 hPa Calm     32% 0 mm 343.0 W/m2
15:12 16.3 °C 0 °C 1022.2 hPa Calm     33% 0 mm 299.0 W/m2
15:17 16.3 °C 0 °C 1022.2 hPa SE 11.1 km/h 11.3 km/h 33% 0 mm 272.0 W/m2
15:38 16.1 °C -0.2 °C 1022.2 hPa Calm     33% 0 mm 223.0 W/m2
15:46 15.9 °C -0.4 °C 1022.2 hPa Calm     33% 0 mm 188.0 W/m2
16:02 15.9 °C -0.4 °C 1022.2 hPa SE 4.7 km/h 4.8 km/h 33% 0 mm 151.0 W/m2
16:14 15.6 °C -0.6 °C 1022.2 hPa Calm     33% 0 mm 83.0 W/m2
16:19 15.6 °C -0.6 °C 1022.2 hPa SE 1.4 km/h 6.4 km/h 33% 0 mm 69.0 W/m2
16:25 15.5 °C -0.7 °C 1022.6 hPa Calm     33% 0 mm 51.0 W/m2
16:55 14.6 °C -0.7 °C 1021.9 hPa Calm   3.2 km/h 35% 0 mm 7.0 W/m2
17:05 14.4 °C -0.9 °C 1021.9 hPa SE 1.4 km/h 6.4 km/h 35% 0 mm 0.0 W/m2
17:10 14.3 °C -1.4 °C 1022.2 hPa Calm   8 km/h 34% 0 mm 0.0 W/m2
17:20 14.2 °C -1.4 °C 1022.2 hPa Calm   8 km/h 34% 0 mm 0.0 W/m2
17:25 14.2 °C -1.4 °C 1022.2 hPa Calm   9.7 km/h 34% 0 mm 0.0 W/m2
17:30 14.1 °C -1.1 °C 1022.2 hPa Calm   4.8 km/h 35% 0 mm 0.0 W/m2
17:35 13.9 °C -1.3 °C 1022.2 hPa Calm   1.6 km/h 35% 0 mm 0.0 W/m2
17:42 13.8 °C -1.4 °C 1021.9 hPa Calm   4.8 km/h 35% 0 mm 0.0 W/m2
17:45 13.7 °C -1.5 °C 1021.9 hPa Calm   3.2 km/h 35% 0 mm 0.0 W/m2
17:55 13.6 °C -1.6 °C 1021.9 hPa Calm     35% 0 mm 0.0 W/m2
18:06 13.4 °C -1.8 °C 1021.9 hPa Calm     35% 0 mm 0.0 W/m2
18:16 13.1 °C -1.6 °C 1022.2 hPa Calm     36% 0 mm 0.0 W/m2
18:23 13.1 °C -1.6 °C 1022.2 hPa Calm     36% 0 mm 0.0 W/m2
18:38 12.1 °C -2.5 °C 1022.2 hPa Calm     36% 0 mm 0.0 W/m2
18:47 11 °C -2.4 °C 1022.2 hPa Calm     39% 0 mm 0.0 W/m2
19:16 10.4 °C -2.6 °C 1022.2 hPa Calm     40% 0 mm 0.0 W/m2
19:37 10 °C -2.7 °C 1022.2 hPa Calm     41% 0 mm 0.0 W/m2
19:57 9.8 °C -2.5 °C 1022.2 hPa SE 3.2 km/h 4.8 km/h 42% 0 mm 0.0 W/m2
20:13 9.3 °C -3 °C 1022.2 hPa SE 3.2 km/h 6.4 km/h 42% 0 mm 0.0 W/m2
20:22 9.1 °C -2.8 °C 1022.2 hPa SE 9.7 km/h 9.7 km/h 43% 0 mm 0.0 W/m2
20:34 8.8 °C -3.1 °C 1022.2 hPa Calm   8 km/h 43% 0 mm 0.0 W/m2
20:44 8.6 °C -3 °C 1022.6 hPa Calm     44% 0 mm 0.0 W/m2
20:52 8.6 °C -2.7 °C 1022.6 hPa Calm     45% 0 mm 0.0 W/m2
Canyon Roadhouse, Fishriver Canyon, Namibia
Compliments of Weather Underground - 2.25 mb